Crane — ZR3519 — position and weather

sailwx.info

Track history (hours):
 
Tides and Currents Weather Stations Pressure Air Temp Water Temp Dewpoint Dewpoint Depression Visibility Wind Speed Wind Dir Waves Ship Positions

Crane

Last reported at 2016-Jun-28 11:15 UTC. Time now 2016-Jun-29 09:13 UTC.
Position S 29°52' E 031°01'.

MMSI: 601085000.

Date/timePositionNaut miles runAvg speedWind from/ knotsBaromVisibWave heightAir tempDewpointWater temp
2016-Jun-28 11:15S 29°52' E 031°01'1 1.8
2016-Jun-28 10:33S 29°53' E 031°02'0 0.0
2016-Jun-28 09:33S 29°53' E 031°02'0 0.0
2016-Jun-28 08:33S 29°53' E 031°02'0 0.0
2016-Jun-28 07:33S 29°53' E 031°02'1 1.2
2016-Jun-28 06:33S 29°52' E 031°01'1 0.1
2016-Jun-27 21:33S 29°53' E 030°60'4 4.1
2016-Jun-27 20:33S 29°52' E 031°04'1 1.5
2016-Jun-27 19:34S 29°53' E 031°03'  
2016-Jun-24 12:08S 29°53' E 030°60'0 0.0
2016-Jun-23 23:33S 29°53' E 030°60'6 6.1
2016-Jun-23 22:34S 29°53' E 031°07'5 4.5
2016-Jun-23 21:33S 29°52' E 031°02'1 0.1
2016-Jun-23 11:33S 29°53' E 031°00'6 5.7
2016-Jun-23 10:33S 29°53' E 031°07'6 5.8
2016-Jun-23 09:33S 29°53' E 031°00'0 0.0
2016-Jun-22 21:30S 29°53' E 030°60'4 4.3
2016-Jun-22 20:33S 29°52' E 031°04'1 1.3
2016-Jun-22 19:33S 29°53' E 031°06'5 5.0
2016-Jun-22 18:33S 29°53' E 030°60'0 0.0
2016-Jun-22 09:33S 29°53' E 030°60'5 5.5
2016-Jun-22 08:34S 29°53' E 031°06'4 4.5
2016-Jun-22 07:34S 29°52' E 031°01'1 0.0
2016-Jun-21 20:33S 29°52' E 031°01'5 4.9
2016-Jun-21 19:33S 29°53' E 031°06'3 3.1
2016-Jun-21 18:33S 29°52' E 031°03'3 0.2
2016-Jun-21 02:33S 29°53' E 030°60'5 5.4
2016-Jun-21 01:34S 29°53' E 031°06'4 3.6
2016-Jun-21 00:33S 29°52' E 031°02'2 0.2
2016-Jun-20 15:34S 29°53' E 030°60'5 4.8
2016-Jun-20 14:33S 29°52' E 031°05'2 2.1
2016-Jun-20 13:33S 29°53' E 031°03'3 2.7
2016-Jun-20 12:33S 29°53' E 030°60'1 0.0
2016-Jun-19 04:10S 29°52' E 031°01'1 1.4
2016-Jun-19 03:33S 29°52' E 031°02'4 4.3
2016-Jun-19 02:33S 29°53' E 031°07'4 4.3
2016-Jun-19 01:33S 29°52' E 031°02'  
Track history (hours):
 
Tides and Currents Weather Stations Pressure Air Temp Water Temp Dewpoint Dewpoint Depression Visibility Wind Speed Wind Dir Waves Ship Positions

Crane

Last reported at 2016-Jun-28 11:15 UTC. Time now 2016-Jun-29 09:13 UTC.
Position S 29°52' E 031°01'.

MMSI: 601085000.

Date/timePositionNaut miles runAvg speedWind from/ knotsBaromVisibWave heightAir tempDewpointWater temp
2016-Jun-28 11:15S 29°52' E 031°01'1 1.8
2016-Jun-28 10:33S 29°53' E 031°02'0 0.0
2016-Jun-28 09:33S 29°53' E 031°02'0 0.0
2016-Jun-28 08:33S 29°53' E 031°02'0 0.0
2016-Jun-28 07:33S 29°53' E 031°02'1 1.2
2016-Jun-28 06:33S 29°52' E 031°01'1 0.1
2016-Jun-27 21:33S 29°53' E 030°60'4 4.1
2016-Jun-27 20:33S 29°52' E 031°04'1 1.5
2016-Jun-27 19:34S 29°53' E 031°03'  
2016-Jun-24 12:08S 29°53' E 030°60'0 0.0
2016-Jun-23 23:33S 29°53' E 030°60'6 6.1
2016-Jun-23 22:34S 29°53' E 031°07'5 4.5
2016-Jun-23 21:33S 29°52' E 031°02'1 0.1
2016-Jun-23 11:33S 29°53' E 031°00'6 5.7
2016-Jun-23 10:33S 29°53' E 031°07'6 5.8
2016-Jun-23 09:33S 29°53' E 031°00'0 0.0
2016-Jun-22 21:30S 29°53' E 030°60'4 4.3
2016-Jun-22 20:33S 29°52' E 031°04'1 1.3
2016-Jun-22 19:33S 29°53' E 031°06'5 5.0
2016-Jun-22 18:33S 29°53' E 030°60'0 0.0
2016-Jun-22 09:33S 29°53' E 030°60'5 5.5
2016-Jun-22 08:34S 29°53' E 031°06'4 4.5
2016-Jun-22 07:34S 29°52' E 031°01'1 0.0
2016-Jun-21 20:33S 29°52' E 031°01'5 4.9
2016-Jun-21 19:33S 29°53' E 031°06'3 3.1
2016-Jun-21 18:33S 29°52' E 031°03'3 0.2
2016-Jun-21 02:33S 29°53' E 030°60'5 5.4
2016-Jun-21 01:34S 29°53' E 031°06'4 3.6
2016-Jun-21 00:33S 29°52' E 031°02'2 0.2
2016-Jun-20 15:34S 29°53' E 030°60'5 4.8
2016-Jun-20 14:33S 29°52' E 031°05'2 2.1
2016-Jun-20 13:33S 29°53' E 031°03'3 2.7
2016-Jun-20 12:33S 29°53' E 030°60'1 0.0
2016-Jun-19 04:10S 29°52' E 031°01'1 1.4
2016-Jun-19 03:33S 29°52' E 031°02'4 4.3
2016-Jun-19 02:33S 29°53' E 031°07'4 4.3
2016-Jun-19 01:33S 29°52' E 031°02'  

Dump ship's entire track history